createdAt,value
2018-05-08T00:00:00.249Z,4.80
2018-05-08T00:01:53.402Z,4.80
2018-05-08T00:02:53.203Z,4.60
2018-05-08T00:04:46.363Z,4.80
2018-05-08T00:05:46.166Z,4.90
2018-05-08T00:07:39.346Z,4.80
2018-05-08T00:08:39.115Z,4.50
2018-05-08T00:10:32.167Z,4.70
2018-05-08T00:11:32.070Z,5.20
2018-05-08T00:13:25.119Z,4.90
2018-05-08T00:14:25.027Z,4.60
2018-05-08T00:16:18.077Z,4.90
2018-05-08T00:17:17.979Z,5.00
2018-05-08T00:19:10.933Z,4.90
2018-05-08T00:20:10.840Z,4.70
2018-05-08T00:22:03.781Z,4.70
2018-05-08T00:23:03.689Z,5.30
2018-05-08T00:24:56.635Z,5.40
2018-05-08T00:25:56.548Z,4.90
2018-05-08T00:27:49.591Z,4.90
2018-05-08T00:28:49.497Z,5.00
2018-05-08T00:30:42.469Z,4.70
2018-05-08T00:31:42.353Z,5.30
2018-05-08T00:33:35.396Z,5.00
2018-05-08T00:34:35.304Z,4.90
2018-05-08T00:36:28.352Z,4.80
2018-05-08T00:37:28.258Z,4.70
2018-05-08T00:39:21.305Z,5.00
2018-05-08T00:40:21.217Z,4.70
2018-05-08T00:42:14.263Z,4.60
2018-05-08T00:43:14.170Z,5.20
2018-05-08T00:45:07.220Z,5.30
2018-05-08T00:46:07.127Z,4.90
2018-05-08T00:48:00.108Z,5.00
2018-05-08T00:49:00.080Z,4.70
2018-05-08T00:50:58.671Z,5.20
2018-05-08T00:52:00.363Z,5.20
2018-05-08T00:53:46.229Z,4.70
2018-05-08T00:54:46.034Z,5.00
2018-05-08T00:56:39.612Z,5.20
2018-05-08T00:57:39.501Z,5.00
2018-05-08T00:59:32.654Z,5.30
2018-05-08T01:00:32.472Z,4.90
2018-05-08T01:02:25.611Z,5.20
2018-05-08T01:03:25.414Z,4.80
2018-05-08T01:05:18.565Z,4.90
2018-05-08T01:06:18.369Z,4.90
2018-05-08T01:08:11.521Z,5.10
2018-05-08T01:09:11.323Z,4.90
2018-05-08T01:11:04.474Z,5.10
2018-05-08T01:12:04.278Z,5.10
2018-05-08T01:13:57.429Z,4.80
2018-05-08T01:14:57.237Z,4.80
2018-05-08T01:16:50.384Z,5.10
2018-05-08T01:17:50.189Z,5.20
2018-05-08T01:19:43.334Z,5.20
2018-05-08T01:20:43.138Z,5.30
2018-05-08T01:22:36.807Z,5.20
2018-05-08T01:23:36.613Z,5.00
2018-05-08T01:25:29.669Z,5.20
2018-05-08T01:26:29.567Z,5.10
2018-05-08T01:28:22.618Z,5.00
2018-05-08T01:29:22.521Z,5.00
2018-05-08T01:31:15.572Z,4.70
2018-05-08T01:32:15.478Z,5.00
2018-05-08T01:34:08.430Z,5.30
2018-05-08T01:35:08.333Z,4.90
2018-05-08T01:37:01.286Z,5.40
2018-05-08T01:38:01.192Z,5.00
2018-05-08T01:39:54.235Z,5.40
2018-05-08T01:40:54.140Z,5.10
2018-05-08T01:42:47.088Z,5.10
2018-05-08T01:43:46.999Z,5.10
2018-05-08T01:45:40.044Z,5.50
2018-05-08T01:46:39.948Z,5.20
2018-05-08T01:48:33.002Z,4.90
2018-05-08T01:49:32.907Z,5.50
2018-05-08T01:51:25.954Z,5.30
2018-05-08T01:52:25.858Z,5.00
2018-05-08T01:54:18.910Z,5.00
2018-05-08T01:55:18.812Z,4.80
2018-05-08T01:57:11.864Z,5.10
2018-05-08T01:58:11.772Z,5.00
2018-05-08T02:00:04.819Z,5.40
2018-05-08T02:01:04.724Z,5.20
2018-05-08T02:02:57.776Z,5.10
2018-05-08T02:03:57.683Z,5.70
2018-05-08T02:05:50.833Z,5.00
2018-05-08T02:06:50.640Z,5.00
2018-05-08T02:08:43.687Z,5.50
2018-05-08T02:09:43.592Z,5.10
2018-05-08T02:11:36.749Z,5.00
2018-05-08T02:12:36.548Z,5.50
2018-05-08T02:14:29.600Z,5.70
2018-05-08T02:15:29.502Z,5.00
2018-05-08T02:17:22.657Z,5.00
2018-05-08T02:18:22.460Z,5.10
2018-05-08T02:20:15.620Z,5.40
2018-05-08T02:21:15.416Z,5.50
2018-05-08T02:23:08.567Z,5.20
2018-05-08T02:24:08.369Z,5.10
2018-05-08T02:26:01.539Z,5.30
2018-05-08T02:27:01.335Z,5.10
2018-05-08T02:28:54.480Z,4.90
2018-05-08T02:29:54.283Z,5.20
2018-05-08T02:31:47.435Z,5.20
2018-05-08T02:32:47.241Z,5.40
2018-05-08T02:34:40.391Z,5.50
2018-05-08T02:35:40.204Z,5.10
2018-05-08T02:37:33.245Z,5.80
2018-05-08T02:38:33.100Z,5.80
2018-05-08T02:40:26.203Z,5.90
2018-05-08T02:41:26.004Z,5.00
2018-05-08T02:43:19.157Z,5.40
2018-05-08T02:44:18.959Z,5.30
2018-05-08T02:46:12.109Z,5.30
2018-05-08T02:47:11.911Z,5.80
2018-05-08T02:49:04.895Z,5.30
2018-05-08T02:50:04.866Z,5.60
2018-05-08T02:51:58.022Z,5.70
2018-05-08T02:52:57.824Z,5.60
2018-05-08T02:54:50.985Z,5.70
2018-05-08T02:55:50.788Z,5.40
2018-05-08T02:57:43.936Z,5.40
2018-05-08T02:58:43.740Z,5.60
2018-05-08T03:00:36.890Z,6.00
2018-05-08T03:01:36.692Z,5.50
2018-05-08T03:03:29.843Z,5.70
2018-05-08T03:04:29.644Z,5.90
2018-05-08T03:06:22.798Z,5.60
2018-05-08T03:07:22.601Z,6.00
2018-05-08T03:09:15.753Z,6.00
2018-05-08T03:10:15.553Z,6.00
2018-05-08T03:12:08.708Z,5.80
2018-05-08T03:13:08.509Z,5.90
2018-05-08T03:15:01.571Z,5.50
2018-05-08T03:16:01.464Z,6.40
2018-05-08T03:17:54.623Z,6.10
2018-05-08T03:18:54.431Z,5.80
2018-05-08T03:20:47.571Z,6.30
2018-05-08T03:21:47.372Z,6.10
2018-05-08T03:23:40.528Z,6.10
2018-05-08T03:24:40.329Z,6.90
2018-05-08T03:26:33.484Z,6.20
2018-05-08T03:27:33.285Z,5.80
2018-05-08T03:29:26.439Z,5.80
2018-05-08T03:30:26.245Z,6.40
2018-05-08T03:32:20.322Z,6.30
2018-05-08T03:33:19.197Z,6.10
2018-05-08T03:35:12.262Z,6.00
2018-05-08T03:36:12.157Z,6.40
2018-05-08T03:38:05.618Z,6.20
2018-05-08T03:39:05.525Z,6.20
2018-05-08T03:40:58.469Z,6.10
2018-05-08T03:41:58.379Z,6.50
2018-05-08T03:43:51.327Z,6.00
2018-05-08T03:44:51.231Z,5.70
2018-05-08T03:46:44.179Z,6.60
2018-05-08T03:47:44.084Z,6.40
2018-05-08T03:49:37.132Z,6.40
2018-05-08T03:50:37.038Z,6.10
2018-05-08T03:52:29.985Z,6.40
2018-05-08T03:53:29.891Z,6.10
2018-05-08T03:55:22.941Z,6.10
2018-05-08T03:56:22.845Z,6.30
2018-05-08T03:58:15.795Z,6.20
2018-05-08T03:59:15.702Z,6.90
2018-05-08T04:01:08.751Z,6.60
2018-05-08T04:02:08.652Z,6.30
2018-05-08T04:04:01.711Z,6.80
2018-05-08T04:05:01.608Z,6.50
2018-05-08T04:06:54.659Z,7.10
2018-05-08T04:07:54.560Z,6.80
2018-05-08T04:09:47.614Z,6.00
2018-05-08T04:10:47.521Z,6.70
2018-05-08T04:12:40.570Z,6.20
2018-05-08T04:13:40.438Z,6.40
2018-05-08T04:15:33.488Z,6.30
2018-05-08T04:16:33.328Z,6.90
2018-05-08T04:18:26.484Z,6.50
2018-05-08T04:19:26.282Z,7.00
2018-05-08T04:21:19.342Z,7.00
2018-05-08T04:22:19.237Z,6.60
2018-05-08T04:24:12.396Z,6.80
2018-05-08T04:25:12.194Z,6.90
2018-05-08T04:27:05.248Z,6.60
2018-05-08T04:28:05.149Z,6.70
2018-05-08T04:29:58.321Z,6.50
2018-05-08T04:30:58.107Z,7.10
2018-05-08T04:32:51.270Z,7.00
2018-05-08T04:33:51.059Z,6.60
2018-05-08T04:35:44.221Z,7.00
2018-05-08T04:36:44.061Z,7.20
2018-05-08T04:38:37.179Z,7.20
2018-05-08T04:39:36.972Z,7.40
2018-05-08T04:41:30.130Z,6.90
2018-05-08T04:42:29.930Z,7.30
2018-05-08T04:44:23.088Z,7.50
2018-05-08T04:45:22.885Z,6.70
2018-05-08T04:47:16.041Z,7.50
2018-05-08T04:48:15.837Z,7.70
2018-05-08T04:50:08.832Z,7.80
2018-05-08T04:51:08.794Z,8.10
2018-05-08T04:52:08.881Z,7.70
2018-05-08T04:53:08.745Z,8.00
2018-05-08T04:54:08.893Z,7.50
2018-05-08T04:55:08.708Z,7.50
2018-05-08T04:56:08.680Z,7.80
2018-05-08T04:57:08.813Z,7.90
2018-05-08T04:58:08.636Z,8.90
2018-05-08T04:59:08.723Z,7.60
2018-05-08T05:00:08.588Z,7.60
2018-05-08T05:01:08.637Z,7.80
2018-05-08T05:02:08.546Z,7.90
2018-05-08T05:03:08.652Z,7.90
2018-05-08T05:04:08.499Z,7.10
2018-05-08T05:05:08.664Z,7.70
2018-05-08T05:06:08.453Z,7.60
2018-05-08T05:07:08.578Z,7.30
2018-05-08T05:08:08.404Z,7.30
2018-05-08T05:09:08.489Z,8.10
2018-05-08T05:10:08.362Z,7.50
2018-05-08T05:11:08.504Z,7.60
2018-05-08T05:12:08.316Z,7.60
2018-05-08T05:13:08.413Z,7.80
2018-05-08T05:14:08.270Z,7.20
2018-05-08T05:15:08.427Z,7.70
2018-05-08T05:16:08.226Z,7.60
2018-05-08T05:17:08.335Z,7.10
2018-05-08T05:18:08.186Z,7.30
2018-05-08T05:19:08.353Z,6.20
2018-05-08T05:20:08.144Z,6.60
2018-05-08T05:21:08.275Z,6.10
2018-05-08T05:22:08.089Z,6.30
2018-05-08T05:23:08.303Z,5.90
2018-05-08T05:24:08.043Z,6.10
2018-05-08T05:25:08.193Z,5.80
2018-05-08T05:26:07.998Z,5.80
2018-05-08T05:27:08.162Z,5.90
2018-05-08T05:28:07.955Z,5.30
2018-05-08T05:29:08.119Z,5.80
2018-05-08T05:30:07.911Z,5.30
2018-05-08T05:31:07.927Z,5.30
2018-05-08T05:32:07.868Z,4.90
2018-05-08T05:33:07.943Z,5.10
2018-05-08T05:34:07.823Z,4.70
2018-05-08T05:35:08.903Z,4.70
2018-05-08T05:36:07.774Z,4.90
2018-05-08T05:37:07.867Z,4.70
2018-05-08T05:38:07.730Z,4.30
2018-05-08T05:39:07.784Z,4.80
2018-05-08T05:40:07.696Z,4.10
2018-05-08T05:41:07.689Z,4.20
2018-05-08T05:42:07.644Z,4.10
2018-05-08T05:43:07.705Z,4.10
2018-05-08T05:44:07.605Z,4.20
2018-05-08T05:45:07.614Z,3.90
2018-05-08T05:46:07.589Z,3.90
2018-05-08T05:47:07.633Z,4.40
2018-05-08T05:48:07.499Z,4.10
2018-05-08T05:49:07.542Z,3.70
2018-05-08T05:50:07.464Z,4.10
2018-05-08T05:51:07.560Z,4.20
2018-05-08T05:52:07.409Z,3.70
2018-05-08T05:53:07.467Z,4.30
2018-05-08T05:54:07.381Z,4.00
2018-05-08T05:55:07.485Z,4.20
2018-05-08T05:56:07.329Z,4.00
2018-05-08T05:57:07.370Z,3.60
2018-05-08T05:58:07.291Z,3.90
2018-05-08T05:59:07.277Z,3.80
2018-05-08T06:00:07.249Z,3.90
2018-05-08T06:01:07.288Z,3.60
2018-05-08T06:02:07.193Z,3.40
2018-05-08T06:03:07.199Z,3.50
2018-05-08T06:04:07.167Z,3.10
2018-05-08T06:05:07.211Z,3.20
2018-05-08T06:06:07.111Z,3.10
2018-05-08T06:07:07.121Z,2.80
2018-05-08T06:08:07.063Z,3.20
2018-05-08T06:09:07.134Z,3.00
2018-05-08T06:10:07.022Z,3.10
2018-05-08T06:11:07.043Z,3.10
2018-05-08T06:12:06.978Z,2.70
2018-05-08T06:13:07.056Z,2.70
2018-05-08T06:14:06.947Z,2.80
2018-05-08T06:15:06.966Z,2.70
2018-05-08T06:16:06.894Z,3.00
2018-05-08T06:17:06.979Z,2.50
2018-05-08T06:18:06.872Z,2.60
2018-05-08T06:19:06.886Z,3.00
2018-05-08T06:20:06.796Z,2.90
2018-05-08T06:21:06.900Z,2.60
2018-05-08T06:22:06.765Z,2.70
2018-05-08T06:23:06.819Z,2.60
2018-05-08T06:24:06.720Z,3.00
2018-05-08T06:25:06.717Z,2.60
2018-05-08T06:26:06.679Z,2.60
2018-05-08T06:27:06.752Z,2.60
2018-05-08T06:28:06.637Z,2.60
2018-05-08T06:29:06.640Z,2.50
2018-05-08T06:30:06.593Z,2.80
2018-05-08T06:31:06.680Z,2.60
2018-05-08T06:32:06.549Z,2.70
2018-05-08T06:33:06.569Z,2.50
2018-05-08T06:34:06.539Z,2.50
2018-05-08T06:35:06.581Z,2.40
2018-05-08T06:36:06.465Z,2.60
2018-05-08T06:37:06.487Z,2.50
2018-05-08T06:38:06.434Z,2.60
2018-05-08T06:39:06.504Z,2.60
2018-05-08T06:40:06.409Z,2.60
2018-05-08T06:41:06.409Z,2.30
2018-05-08T06:42:06.341Z,2.60
2018-05-08T06:43:06.422Z,2.50
2018-05-08T06:44:06.299Z,2.40
2018-05-08T06:45:06.337Z,2.50
2018-05-08T06:46:06.256Z,2.50
2018-05-08T06:47:06.344Z,2.50
2018-05-08T06:48:06.217Z,2.30
2018-05-08T06:49:06.257Z,2.60
2018-05-08T06:50:06.172Z,2.30
2018-05-08T06:51:06.163Z,2.70
2018-05-08T06:52:06.140Z,2.40
2018-05-08T06:53:06.177Z,2.60
2018-05-08T06:54:06.090Z,2.40
2018-05-08T06:55:06.088Z,2.40
2018-05-08T06:56:06.049Z,2.30
2018-05-08T06:57:06.099Z,2.50
2018-05-08T06:58:06.011Z,2.60
2018-05-08T06:59:06.011Z,2.50
2018-05-08T07:00:05.972Z,2.30
2018-05-08T07:01:06.026Z,2.50
2018-05-08T07:02:05.928Z,2.40
2018-05-08T07:03:05.934Z,2.60
2018-05-08T07:04:05.890Z,2.50
2018-05-08T07:05:05.954Z,2.50
2018-05-08T07:06:05.841Z,2.30
2018-05-08T07:07:05.868Z,2.70
2018-05-08T07:08:05.803Z,2.40
2018-05-08T07:09:05.898Z,2.30
2018-05-08T07:10:05.773Z,2.30
2018-05-08T07:11:05.784Z,2.30
2018-05-08T07:12:05.761Z,2.40
2018-05-08T07:13:05.803Z,2.60
2018-05-08T07:14:05.680Z,2.40
2018-05-08T07:15:05.703Z,2.80
2018-05-08T07:16:05.792Z,2.50
2018-05-08T07:17:05.716Z,2.50
2018-05-08T07:18:05.598Z,2.80
2018-05-08T07:19:05.627Z,2.50
2018-05-08T07:20:05.561Z,2.50
2018-05-08T07:21:05.635Z,2.40
2018-05-08T07:22:05.535Z,2.40
2018-05-08T07:23:05.545Z,2.60
2018-05-08T07:24:05.546Z,2.80
2018-05-08T07:25:05.558Z,2.60
2018-05-08T07:26:05.444Z,2.50
2018-05-08T07:27:05.470Z,2.50
2018-05-08T07:28:05.397Z,2.50
2018-05-08T07:29:05.480Z,2.60
2018-05-08T07:30:05.405Z,2.60
2018-05-08T07:31:05.401Z,2.60
2018-05-08T07:32:05.326Z,2.60
2018-05-08T07:33:05.404Z,2.90
2018-05-08T07:34:05.280Z,2.40
2018-05-08T07:35:05.314Z,2.60
2018-05-08T07:36:05.240Z,2.60
2018-05-08T07:37:05.329Z,2.60
2018-05-08T07:38:05.203Z,2.30
2018-05-08T07:39:05.238Z,2.80
2018-05-08T07:40:05.165Z,2.40
2018-05-08T07:41:05.141Z,2.90
2018-05-08T07:42:05.155Z,2.60
2018-05-08T07:43:05.099Z,2.60
2018-05-08T07:44:05.167Z,2.60
2018-05-08T07:45:05.066Z,2.70
2018-05-08T07:46:05.045Z,2.70
2018-05-08T07:47:05.084Z,2.70
2018-05-08T07:48:05.003Z,2.60
2018-05-08T07:49:05.095Z,2.50
2018-05-08T07:50:04.971Z,2.70
2018-05-08T07:51:05.006Z,2.70
2018-05-08T07:52:04.924Z,3.10
2018-05-08T07:53:05.015Z,2.70
2018-05-08T07:54:04.886Z,2.50
2018-05-08T07:55:04.927Z,2.70
2018-05-08T07:56:04.850Z,2.70
2018-05-08T07:57:04.939Z,3.30
2018-05-08T07:58:04.811Z,3.10
2018-05-08T07:59:04.851Z,2.80
2018-05-08T08:00:04.770Z,3.40
2018-05-08T08:01:04.859Z,3.10
2018-05-08T08:02:04.733Z,2.70
2018-05-08T08:03:04.772Z,2.90
2018-05-08T08:04:04.694Z,2.80
2018-05-08T08:05:04.787Z,2.70
2018-05-08T08:06:04.655Z,2.60
2018-05-08T08:07:04.695Z,3.10
2018-05-08T08:08:04.614Z,2.70
2018-05-08T08:09:04.706Z,2.70
2018-05-08T08:10:04.581Z,2.80
2018-05-08T08:11:04.626Z,3.00
2018-05-08T08:12:04.541Z,2.80
2018-05-08T08:13:04.629Z,2.70
2018-05-08T08:14:04.507Z,2.80
2018-05-08T08:15:04.539Z,2.80
2018-05-08T08:16:04.466Z,2.80
2018-05-08T08:17:04.552Z,2.70
2018-05-08T08:18:04.426Z,2.60
2018-05-08T08:19:04.462Z,2.60
2018-05-08T08:20:04.386Z,2.60
2018-05-08T08:21:04.477Z,2.90
2018-05-08T08:22:04.349Z,2.80
2018-05-08T08:23:04.389Z,3.20
2018-05-08T08:24:04.309Z,3.00
2018-05-08T08:25:04.403Z,2.80
2018-05-08T08:26:04.268Z,3.00
2018-05-08T08:27:04.312Z,3.30
2018-05-08T08:28:04.240Z,3.20
2018-05-08T08:29:04.323Z,3.10
2018-05-08T08:30:04.200Z,3.50
2018-05-08T08:31:04.236Z,3.30
2018-05-08T08:32:04.163Z,3.40
2018-05-08T08:33:04.248Z,3.40
2018-05-08T08:34:04.127Z,3.60
2018-05-08T08:35:04.158Z,3.10
2018-05-08T08:36:04.089Z,3.40
2018-05-08T08:37:04.169Z,3.30
2018-05-08T08:38:04.049Z,3.50
2018-05-08T08:39:04.082Z,3.30
2018-05-08T08:40:04.014Z,3.10
2018-05-08T08:41:04.091Z,3.20
2018-05-08T08:42:03.979Z,3.00
2018-05-08T08:43:03.998Z,3.10
2018-05-08T08:44:03.940Z,3.40
2018-05-08T08:45:04.010Z,3.70
2018-05-08T08:46:03.905Z,3.30
2018-05-08T08:47:03.921Z,3.00
2018-05-08T08:48:03.871Z,3.40
2018-05-08T08:49:03.935Z,3.50
2018-05-08T08:50:03.833Z,3.60
2018-05-08T08:51:03.844Z,3.20
2018-05-08T08:52:03.796Z,3.40
2018-05-08T08:53:03.859Z,3.40
2018-05-08T08:54:03.758Z,3.70
2018-05-08T08:55:03.769Z,3.50
2018-05-08T08:56:03.757Z,3.60
2018-05-08T08:57:03.781Z,3.40
2018-05-08T08:58:03.689Z,3.70
2018-05-08T08:59:03.691Z,3.50
2018-05-08T09:00:03.651Z,3.70
2018-05-08T09:01:03.703Z,3.40
2018-05-08T09:02:03.627Z,3.10
2018-05-08T09:03:03.615Z,3.30
2018-05-08T09:04:03.610Z,3.10
2018-05-08T09:05:03.630Z,3.00
2018-05-08T09:06:03.549Z,2.80
2018-05-08T09:07:03.531Z,2.90
2018-05-08T09:08:03.513Z,4.50
2018-05-08T09:09:03.549Z,9.50
2018-05-08T09:10:03.477Z,6.30
2018-05-08T09:11:03.560Z,2.80
2018-05-08T09:12:03.449Z,3.00
2018-05-08T09:13:03.472Z,3.20
2018-05-08T09:14:03.407Z,3.10
2018-05-08T09:15:03.483Z,2.50
2018-05-08T09:16:03.372Z,3.30
2018-05-08T09:17:03.394Z,3.10
2018-05-08T09:18:03.364Z,2.50
2018-05-08T09:19:03.407Z,2.70
2018-05-08T09:20:03.309Z,2.90
2018-05-08T09:21:03.317Z,2.50
2018-05-08T09:22:03.278Z,3.00
2018-05-08T09:23:03.330Z,3.10
2018-05-08T09:24:03.240Z,2.60
2018-05-08T09:25:03.344Z,2.90
2018-05-08T09:26:03.207Z,2.60
2018-05-08T09:27:03.253Z,2.70
2018-05-08T09:28:03.175Z,2.40
2018-05-08T09:29:03.275Z,2.40
2018-05-08T09:30:03.151Z,2.40
2018-05-08T09:31:03.177Z,2.40
2018-05-08T09:32:03.112Z,2.40
2018-05-08T09:33:03.184Z,2.80
2018-05-08T09:34:03.079Z,3.20
2018-05-08T09:35:03.093Z,2.80
2018-05-08T09:36:03.052Z,3.10
2018-05-08T09:37:03.108Z,2.90
2018-05-08T09:38:03.025Z,2.50
2018-05-08T09:39:03.017Z,2.50
2018-05-08T09:40:02.981Z,2.50
2018-05-08T09:41:03.064Z,2.40
2018-05-08T09:42:02.957Z,2.30
2018-05-08T09:43:03.044Z,2.20
2018-05-08T09:44:02.922Z,2.30
2018-05-08T09:45:02.953Z,2.60
2018-05-08T09:46:02.893Z,2.30
2018-05-08T09:47:02.962Z,2.30
2018-05-08T09:48:02.863Z,2.40
2018-05-08T09:49:02.927Z,2.30
2018-05-08T09:52:08.859Z,2.20
2018-05-08T09:52:34.485Z,2.20
2018-05-08T09:54:27.508Z,2.30
2018-05-08T09:55:27.439Z,2.20
2018-05-08T09:57:20.409Z,2.40
2018-05-08T09:58:20.444Z,2.30
2018-05-08T10:00:13.414Z,2.40
2018-05-08T10:01:13.338Z,2.20
2018-05-08T10:03:06.382Z,2.10
2018-05-08T10:04:06.291Z,2.00
2018-05-08T10:05:59.322Z,2.30
2018-05-08T10:06:59.243Z,2.10
2018-05-08T10:08:52.233Z,2.30
2018-05-08T10:09:52.257Z,2.10
2018-05-08T10:11:45.228Z,2.00
2018-05-08T10:12:45.152Z,2.10
2018-05-08T10:14:38.179Z,2.10
2018-05-08T10:15:38.105Z,2.00
2018-05-08T10:17:31.126Z,2.00
2018-05-08T10:18:31.090Z,2.30
2018-05-08T10:20:24.070Z,2.10
2018-05-08T10:21:24.042Z,2.40
2018-05-08T10:23:17.037Z,2.40
2018-05-08T10:24:16.967Z,2.50
2018-05-08T10:26:10.037Z,2.30
2018-05-08T10:27:09.953Z,2.50
2018-05-08T10:29:02.994Z,2.30
2018-05-08T10:30:02.913Z,2.30
2018-05-08T10:31:56.048Z,2.30
2018-05-08T10:32:55.915Z,2.30
2018-05-08T10:34:49.009Z,2.40
2018-05-08T10:35:48.844Z,2.40
2018-05-08T10:37:41.801Z,2.40
2018-05-08T10:38:41.774Z,2.30
2018-05-08T10:40:34.927Z,2.30
2018-05-08T10:41:34.734Z,2.20
2018-05-08T10:43:27.905Z,2.30
2018-05-08T10:44:27.688Z,2.20
2018-05-08T10:46:20.828Z,2.40
2018-05-08T10:47:20.643Z,2.20
2018-05-08T10:49:13.781Z,2.50
2018-05-08T10:50:13.596Z,2.60
2018-05-08T10:52:06.738Z,2.40
2018-05-08T10:53:06.561Z,2.30
2018-05-08T10:54:59.689Z,2.10
2018-05-08T10:55:59.525Z,2.60
2018-05-08T10:57:52.646Z,2.50
2018-05-08T10:58:52.470Z,2.50
2018-05-08T11:00:45.600Z,2.70
2018-05-08T11:01:45.436Z,2.30
2018-05-08T11:03:38.556Z,2.70
2018-05-08T11:04:38.379Z,2.80
2018-05-08T11:06:31.640Z,2.70
2018-05-08T11:07:31.335Z,2.90
2018-05-08T11:09:24.468Z,2.40
2018-05-08T11:10:24.297Z,2.30
2018-05-08T11:12:17.428Z,2.30
2018-05-08T11:13:17.251Z,2.00
2018-05-08T11:15:10.380Z,2.00
2018-05-08T11:16:10.212Z,2.30
2018-05-08T11:18:03.855Z,2.10
2018-05-08T11:19:03.676Z,2.50
2018-05-08T11:20:56.917Z,2.20
2018-05-08T11:21:56.724Z,2.20
2018-05-08T11:23:49.858Z,2.20
2018-05-08T11:24:49.697Z,2.20
2018-05-08T11:26:42.861Z,2.10
2018-05-08T11:27:42.640Z,2.00
2018-05-08T11:29:35.882Z,2.30
2018-05-08T11:30:35.696Z,2.10
2018-05-08T11:32:28.849Z,2.00
2018-05-08T11:33:28.650Z,1.90
2018-05-08T11:35:21.891Z,2.00
2018-05-08T11:36:21.720Z,1.80
2018-05-08T11:38:14.846Z,1.70
2018-05-08T11:39:14.781Z,2.10
2018-05-08T11:41:07.904Z,2.40
2018-05-08T11:42:07.721Z,2.10
2018-05-08T11:44:00.964Z,2.20
2018-05-08T11:45:00.782Z,2.10
2018-05-08T11:46:54.016Z,2.00
2018-05-08T11:47:53.840Z,2.00
2018-05-08T11:49:46.980Z,1.80
2018-05-08T11:50:46.907Z,1.70
2018-05-08T11:52:39.982Z,1.60
2018-05-08T11:53:39.962Z,1.70
2018-05-08T11:55:33.094Z,1.90
2018-05-08T11:56:33.012Z,2.00
2018-05-08T11:58:26.044Z,1.80
2018-05-08T11:59:25.983Z,1.90
2018-05-08T12:01:19.044Z,1.80
2018-05-08T12:02:18.928Z,2.10
2018-05-08T12:04:11.953Z,2.00
2018-05-08T12:05:11.887Z,1.90
2018-05-08T12:07:04.910Z,1.70
2018-05-08T12:08:04.842Z,1.90
2018-05-08T12:09:57.865Z,1.70
2018-05-08T12:10:57.800Z,2.00
2018-05-08T12:12:50.825Z,1.80
2018-05-08T12:13:50.752Z,1.70
2018-05-08T12:15:43.773Z,1.90
2018-05-08T12:16:43.707Z,1.70
2018-05-08T12:18:36.730Z,1.70
2018-05-08T12:19:36.664Z,1.60
2018-05-08T12:21:29.708Z,1.80
2018-05-08T12:22:29.620Z,1.60
2018-05-08T12:24:22.643Z,1.70
2018-05-08T12:25:22.578Z,1.80
2018-05-08T12:27:15.703Z,1.60
2018-05-08T12:28:15.529Z,1.50
2018-05-08T12:30:08.657Z,1.60
2018-05-08T12:31:08.484Z,1.60
2018-05-08T12:33:01.517Z,1.70
2018-05-08T12:34:01.402Z,1.70
2018-05-08T12:35:54.573Z,1.70
2018-05-08T12:36:54.394Z,1.40
2018-05-08T12:38:47.425Z,1.50
2018-05-08T12:39:47.309Z,1.60
2018-05-08T12:41:40.481Z,1.50
2018-05-08T12:42:40.304Z,1.60
2018-05-08T12:44:33.441Z,1.60
2018-05-08T12:45:33.269Z,1.70
2018-05-08T12:47:26.393Z,1.80
2018-05-08T12:48:26.222Z,1.70
2018-05-08T12:49:26.382Z,1.70
2018-05-08T12:50:26.245Z,1.70
2018-05-08T12:51:26.295Z,1.60
2018-05-08T12:52:26.185Z,1.50
2018-05-08T12:53:26.308Z,1.70
2018-05-08T12:54:26.164Z,1.70
2018-05-08T12:55:26.322Z,1.60
2018-05-08T12:56:26.152Z,1.70
2018-05-08T12:57:26.233Z,1.60
2018-05-08T12:58:26.133Z,1.70
2018-05-08T12:59:26.246Z,1.60
2018-05-08T13:00:26.111Z,1.60
2018-05-08T13:01:26.261Z,1.80
2018-05-08T13:02:26.095Z,1.80
2018-05-08T13:03:26.169Z,1.70
2018-05-08T13:04:26.080Z,1.80
2018-05-08T13:05:26.273Z,1.80
2018-05-08T13:06:26.058Z,1.70
2018-05-08T13:07:26.198Z,1.80
2018-05-08T13:08:26.048Z,1.80
2018-05-08T13:09:26.215Z,1.80
2018-05-08T13:10:26.050Z,1.70
2018-05-08T13:11:26.123Z,1.70
2018-05-08T13:12:26.010Z,1.80
2018-05-08T13:13:26.138Z,1.90
2018-05-08T13:14:25.997Z,1.70
2018-05-08T13:15:26.156Z,1.80
2018-05-08T13:16:25.973Z,1.60
2018-05-08T13:17:26.063Z,2.10
2018-05-08T13:18:25.957Z,1.60
2018-05-08T13:19:26.076Z,1.70
2018-05-08T13:20:25.938Z,1.80
2018-05-08T13:21:26.091Z,2.00
2018-05-08T13:22:25.925Z,1.80
2018-05-08T13:23:26.105Z,1.80
2018-05-08T13:24:25.904Z,1.80
2018-05-08T13:25:26.021Z,1.70
2018-05-08T13:26:25.888Z,1.60
2018-05-08T13:27:26.036Z,1.60
2018-05-08T13:28:25.870Z,1.90
2018-05-08T13:29:26.060Z,1.70
2018-05-08T13:30:25.854Z,1.80
2018-05-08T13:31:25.960Z,1.80
2018-05-08T13:32:25.839Z,1.70
2018-05-08T13:33:25.981Z,1.70
2018-05-08T13:34:25.861Z,1.60
2018-05-08T13:35:25.988Z,1.80
2018-05-08T13:36:25.800Z,1.70
2018-05-08T13:37:26.001Z,1.50
2018-05-08T13:38:25.784Z,1.70
2018-05-08T13:39:25.916Z,1.60
2018-05-08T13:40:25.766Z,1.60
2018-05-08T13:41:25.924Z,1.80
2018-05-08T13:42:25.750Z,1.50
2018-05-08T13:43:25.940Z,1.50
2018-05-08T13:44:25.783Z,1.70
2018-05-08T13:45:25.854Z,1.80
2018-05-08T13:46:25.716Z,1.90
2018-05-08T13:47:25.862Z,1.70
2018-05-08T13:48:25.707Z,1.70
2018-05-08T13:49:25.881Z,1.70
2018-05-08T13:50:25.689Z,1.70
2018-05-08T13:51:25.897Z,1.70
2018-05-08T13:52:25.671Z,1.70
2018-05-08T13:53:25.808Z,1.70
2018-05-08T13:54:25.648Z,1.70
2018-05-08T13:55:25.720Z,1.90
2018-05-08T13:56:25.634Z,1.50
2018-05-08T13:57:25.733Z,1.70
2018-05-08T13:58:25.619Z,1.80
2018-05-08T13:59:25.645Z,1.90
2018-05-08T14:00:25.602Z,1.90
2018-05-08T14:01:25.658Z,1.80
2018-05-08T14:02:25.584Z,1.90
2018-05-08T14:03:25.672Z,1.70
2018-05-08T14:04:25.578Z,1.50
2018-05-08T14:05:25.687Z,1.50
2018-05-08T14:06:25.552Z,1.80
2018-05-08T14:07:25.597Z,1.70
2018-05-08T14:08:25.539Z,1.70
2018-05-08T14:09:25.653Z,1.50
2018-05-08T14:10:25.519Z,1.80
2018-05-08T14:11:25.628Z,1.70
2018-05-08T14:12:25.503Z,1.70
2018-05-08T14:13:25.539Z,2.00
2018-05-08T14:14:25.485Z,1.70
2018-05-08T14:15:25.554Z,1.80
2018-05-08T14:16:25.475Z,1.80
2018-05-08T14:17:25.572Z,1.80
2018-05-08T14:18:25.454Z,1.70
2018-05-08T14:19:25.757Z,1.90
2018-05-08T14:20:25.439Z,2.00
2018-05-08T14:21:25.487Z,1.80
2018-05-08T14:22:25.424Z,1.70
2018-05-08T14:23:25.505Z,1.70
2018-05-08T14:24:25.411Z,1.60
2018-05-08T14:25:25.532Z,1.80
2018-05-08T14:26:25.391Z,1.30
2018-05-08T14:27:25.430Z,1.60
2018-05-08T14:28:25.375Z,1.80
2018-05-08T14:29:25.446Z,1.60
2018-05-08T14:30:25.360Z,1.60
2018-05-08T14:31:25.476Z,1.40
2018-05-08T14:32:25.342Z,1.50
2018-05-08T14:33:25.475Z,1.60
2018-05-08T14:34:25.326Z,1.60
2018-05-08T14:35:25.387Z,1.70
2018-05-08T14:36:25.317Z,1.80
2018-05-08T14:37:25.401Z,1.80
2018-05-08T14:38:25.359Z,1.70
2018-05-08T14:39:25.470Z,1.80
2018-05-08T14:40:25.285Z,1.80
2018-05-08T14:41:25.428Z,1.50
2018-05-08T14:42:25.261Z,1.70
2018-05-08T14:43:25.340Z,1.90
2018-05-08T14:44:25.280Z,1.80
2018-05-08T14:45:25.354Z,1.70
2018-05-08T14:46:25.238Z,1.60
2018-05-08T14:47:25.368Z,1.50
2018-05-08T14:48:25.214Z,1.60
2018-05-08T14:49:25.330Z,1.60
2018-05-08T14:50:25.197Z,1.50
2018-05-08T14:51:25.295Z,1.70
2018-05-08T14:52:25.184Z,1.70
2018-05-08T14:53:25.310Z,1.60
2018-05-08T14:54:25.186Z,1.70
2018-05-08T14:55:25.354Z,1.60
2018-05-08T14:56:25.150Z,1.70
2018-05-08T14:57:25.235Z,1.60
2018-05-08T14:58:25.137Z,1.70
2018-05-08T14:59:25.250Z,1.80
2018-05-08T15:00:25.115Z,1.80
2018-05-08T15:01:25.264Z,1.50
2018-05-08T15:02:25.099Z,1.70
2018-05-08T15:03:25.177Z,1.70
2018-05-08T15:04:25.149Z,1.80
2018-05-08T15:05:25.215Z,1.90
2018-05-08T15:06:25.068Z,1.50
2018-05-08T15:07:25.207Z,1.80
2018-05-08T15:08:25.055Z,1.60
2018-05-08T15:09:25.226Z,1.70
2018-05-08T15:10:25.038Z,1.70
2018-05-08T15:11:25.188Z,1.60
2018-05-08T15:12:25.022Z,1.50
2018-05-08T15:13:25.148Z,1.70
2018-05-08T15:14:25.007Z,1.60
2018-05-08T15:15:25.161Z,1.70
2018-05-08T15:16:24.988Z,1.60
2018-05-08T15:17:25.175Z,1.40
2018-05-08T15:18:24.971Z,1.40
2018-05-08T15:19:25.097Z,1.50
2018-05-08T15:20:24.989Z,1.60
2018-05-08T15:21:25.099Z,1.70
2018-05-08T15:22:24.946Z,1.70
2018-05-08T15:23:25.112Z,1.60
2018-05-08T15:24:24.931Z,1.80
2018-05-08T15:25:25.022Z,1.50
2018-05-08T15:26:24.911Z,1.40
2018-05-08T15:27:25.036Z,1.70
2018-05-08T15:28:24.906Z,1.40
2018-05-08T15:29:25.052Z,1.80
2018-05-08T15:30:24.880Z,1.60
2018-05-08T15:31:25.078Z,1.60
2018-05-08T15:32:24.868Z,1.30
2018-05-08T15:33:25.000Z,1.50
2018-05-08T15:34:24.859Z,1.60
2018-05-08T15:35:24.994Z,1.30
2018-05-08T15:36:24.833Z,1.60
2018-05-08T15:37:25.008Z,1.60
2018-05-08T15:38:24.820Z,1.60
2018-05-08T15:39:25.023Z,1.60
2018-05-08T15:40:24.802Z,1.60
2018-05-08T15:41:24.933Z,1.50
2018-05-08T15:42:24.786Z,1.50